Time;durP1;ratioP1;P1;durP2;ratioP2;P2;SDS_P1;SDS_P2;PMS_P1;PMS_P2;Temp;Humidity;BMP_temperature;BMP_pressure;BME280_temperature;BME280_humidity;BME280_pressure;Samples;Min_cycle;Max_cycle;Signal;HPM_P1;HPM_P2
2022/07/27 00:01:55;;;;;;;20.83;15.88;;;;;;;;;;5046928;28;20052;-69
2022/07/27 00:04:37;;;;;;;19.35;13.77;;;;;;;;;;5044721;28;20724;-68
2022/07/27 00:07:26;;;;;;;18.38;14.18;;;;;;;;;;5053269;28;20051;-68
2022/07/27 00:10:16;;;;;;;19.50;16.30;;;;;;;;;;5056097;28;20107;-68
2022/07/27 00:12:58;;;;;;;17.20;13.70;;;;;;;;;;5056042;28;20055;-69
2022/07/27 00:15:47;;;;;;;21.90;15.48;;;;;;;;;;5048468;28;20052;-68
2022/07/27 00:18:36;;;;;;;17.45;14.93;;;;;;;;;;5052744;28;20060;-68
2022/07/27 00:21:25;;;;;;;20.23;15.15;;;;;;;;;;5053521;28;20041;-68
2022/07/27 00:24:07;;;;;;;21.05;17.05;;;;;;;;;;5045834;28;20037;-68
2022/07/27 00:26:56;;;;;;;21.65;16.25;;;;;;;;;;5047510;28;20040;-68
2022/07/27 00:29:38;;;;;;;21.83;15.90;;;;;;;;;;5053276;28;20055;-69
2022/07/27 00:32:26;;;;;;;25.85;17.08;;;;;;;;;;5030012;28;20449;-68
2022/07/27 00:35:08;;;;;;;23.08;15.38;;;;;;;;;;5042362;28;20041;-68
2022/07/27 00:37:57;;;;;;;22.25;15.02;;;;;;;;;;5051610;28;20632;-69
2022/07/27 00:40:39;;;;;;;19.67;16.10;;;;;;;;;;5042291;28;20488;-69
2022/07/27 00:43:27;;;;;;;19.30;14.63;;;;;;;;;;5049629;28;20052;-69
2022/07/27 00:46:16;;;;;;;21.27;13.82;;;;;;;;;;5052680;28;20337;-67
2022/07/27 00:48:58;;;;;;;16.65;14.40;;;;;;;;;;5053425;28;20135;-68
2022/07/27 00:51:47;;;;;;;18.85;13.85;;;;;;;;;;5057128;28;20044;-69
2022/07/27 00:54:29;;;;;;;17.27;13.45;;;;;;;;;;5058959;28;20044;-69
2022/07/27 00:57:18;;;;;;;20.20;14.30;;;;;;;;;;5058917;28;20048;-69
2022/07/27 01:00:07;;;;;;;19.98;14.13;;;;;;;;;;5060574;28;20051;-68
2022/07/27 01:02:48;;;;;;;16.80;13.40;;;;;;;;;;5054555;28;20049;-67
2022/07/27 01:05:37;;;;;;;18.08;14.80;;;;;;;;;;5044367;28;20098;-67
2022/07/27 01:08:23;;;;;;;18.45;13.25;;;;;;;;;;5061207;28;20064;-67
2022/07/27 01:11:11;;;;;;;16.88;13.07;;;;;;;;;;5060803;28;20059;-68
2022/07/27 01:13:53;;;;;;;21.05;14.65;;;;;;;;;;5064847;28;20068;-67
2022/07/27 01:16:41;;;;;;;18.90;14.60;;;;;;;;;;5064795;28;20058;-67
2022/07/27 01:19:36;;;;;;;17.13;13.90;;;;;;;;;;5049854;28;20059;-67
2022/07/27 01:22:11;;;;;;;18.90;14.45;;;;;;;;;;5064160;28;20441;-68
2022/07/27 01:25:00;;;;;;;20.35;15.02;;;;;;;;;;5063931;28;20060;-67
2022/07/27 01:27:48;;;;;;;16.42;13.93;;;;;;;;;;5055473;28;20927;-67
2022/07/27 01:30:30;;;;;;;26.60;15.10;;;;;;;;;;5063163;28;20739;-67
2022/07/27 01:33:24;;;;;;;20.35;13.90;;;;;;;;;;5061914;28;20048;-67
2022/07/27 01:36:12;;;;;;;21.80;15.30;;;;;;;;;;5064732;28;20063;-68
2022/07/27 01:38:55;;;;;;;18.17;14.50;;;;;;;;;;5062592;28;20076;-67
2022/07/27 01:41:44;;;;;;;24.75;15.02;;;;;;;;;;5053913;28;20772;-67
2022/07/27 01:44:33;;;;;;;21.40;16.35;;;;;;;;;;5054273;28;20060;-67
2022/07/27 01:47:22;;;;;;;21.45;16.58;;;;;;;;;;5039594;28;20045;-67
2022/07/27 01:50:10;;;;;;;22.25;17.25;;;;;;;;;;5053280;28;20059;-68
2022/07/27 01:52:59;;;;;;;20.73;16.77;;;;;;;;;;5048915;28;20106;-68
2022/07/27 01:55:41;;;;;;;26.65;17.58;;;;;;;;;;5046232;28;20136;-67
2022/07/27 01:58:29;;;;;;;22.95;16.63;;;;;;;;;;5065052;28;20118;-68
2022/07/27 02:01:12;;;;;;;21.02;15.18;;;;;;;;;;5052111;28;20049;-67
2022/07/27 02:04:07;;;;;;;22.25;16.50;;;;;;;;;;5067126;28;20063;-68
2022/07/27 02:06:42;;;;;;;24.40;17.00;;;;;;;;;;5068108;28;20052;-67
2022/07/27 02:09:30;;;;;;;18.45;14.98;;;;;;;;;;5068666;28;20069;-67
2022/07/27 02:15:21;;;;;;;25.10;16.38;;;;;;;;;;5068714;28;20048;-67
2022/07/27 02:18:22;;;;;;;26.67;17.17;;;;;;;;;;5068404;28;20044;-67
2022/07/27 02:21:16;;;;;;;22.75;15.77;;;;;;;;;;5067899;28;20137;-68
2022/07/27 02:24:03;;;;;;;21.95;15.40;;;;;;;;;;5057095;28;20055;-67
2022/07/27 02:26:45;;;;;;;24.88;16.10;;;;;;;;;;5067479;28;20049;-67
2022/07/27 02:29:32;;;;;;;20.90;15.73;;;;;;;;;;5067586;28;20067;-68
2022/07/27 02:32:14;;;;;;;24.95;16.17;;;;;;;;;;5068334;28;20106;-67
2022/07/27 02:35:02;;;;;;;25.20;15.38;;;;;;;;;;5069180;28;20132;-68
2022/07/27 02:37:59;;;;;;;26.52;16.60;;;;;;;;;;5067114;28;20045;-68
2022/07/27 02:40:47;;;;;;;23.00;15.70;;;;;;;;;;5068313;28;20056;-68
2022/07/27 02:43:36;;;;;;;21.92;16.38;;;;;;;;;;5043206;28;20111;-68
2022/07/27 02:46:18;;;;;;;25.08;17.30;;;;;;;;;;5047855;28;20063;-68
2022/07/27 02:49:07;;;;;;;24.75;17.80;;;;;;;;;;5060760;28;20472;-68
2022/07/27 02:51:56;;;;;;;23.58;17.02;;;;;;;;;;5067693;28;20479;-69
2022/07/27 02:54:45;;;;;;;26.25;16.92;;;;;;;;;;5068334;28;20079;-68
2022/07/27 02:57:27;;;;;;;23.55;18.08;;;;;;;;;;5047954;28;20049;-67
2022/07/27 03:00:16;;;;;;;29.02;17.27;;;;;;;;;;5067629;28;20648;-68
2022/07/27 03:03:05;;;;;;;26.25;18.40;;;;;;;;;;5048379;28;20080;-68
2022/07/27 03:06:00;;;;;;;27.15;17.67;;;;;;;;;;5064536;28;20062;-67
2022/07/27 03:08:35;;;;;;;23.33;17.77;;;;;;;;;;5049141;28;20072;-68
2022/07/27 03:11:24;;;;;;;23.95;17.63;;;;;;;;;;5066756;28;20044;-68
2022/07/27 03:14:05;;;;;;;22.10;17.83;;;;;;;;;;5067835;28;20045;-68
2022/07/27 03:16:55;;;;;;;24.08;17.63;;;;;;;;;;5063249;28;20098;-68
2022/07/27 03:19:37;;;;;;;24.30;17.90;;;;;;;;;;5058968;28;20543;-68
2022/07/27 03:22:32;;;;;;;21.60;16.92;;;;;;;;;;5054668;28;20055;-68
2022/07/27 03:25:08;;;;;;;24.63;18.05;;;;;;;;;;5067040;28;20091;-68
2022/07/27 03:27:50;;;;;;;;;;;;;;;;;;5068153;28;20049;-68
2022/07/27 03:30:32;;;;;;;22.60;16.90;;;;;;;;;;5066986;28;19959;-68
2022/07/27 03:33:21;;;;;;;20.42;16.20;;;;;;;;;;5061869;28;20048;-69
2022/07/27 03:36:03;;;;;;;19.67;15.73;;;;;;;;;;5066869;28;20075;-68
2022/07/27 03:38:51;;;;;;;21.83;16.08;;;;;;;;;;5066709;28;20048;-68
2022/07/27 03:41:33;;;;;;;20.33;16.15;;;;;;;;;;5067107;28;20091;-68
2022/07/27 03:44:20;;;;;;;25.13;15.88;;;;;;;;;;5066746;28;20048;-67
2022/07/27 03:47:02;;;;;;;22.92;16.85;;;;;;;;;;5067530;28;20071;-68
2022/07/27 03:49:51;;;;;;;25.50;17.48;;;;;;;;;;5066974;28;20052;-69
2022/07/27 03:52:40;;;;;;;21.55;16.38;;;;;;;;;;5063994;27;20131;-68
2022/07/27 03:55:29;;;;;;;26.55;16.42;;;;;;;;;;5051250;28;20049;-68
2022/07/27 03:58:11;;;;;;;26.45;16.70;;;;;;;;;;5067168;28;20044;-68
2022/07/27 04:01:06;;;;;;;23.98;16.13;;;;;;;;;;5049125;28;20480;-69
2022/07/27 04:03:41;;;;;;;21.58;15.52;;;;;;;;;;5065773;28;20056;-68
2022/07/27 04:06:29;;;;;;;20.50;16.48;;;;;;;;;;5065939;28;20110;-68
2022/07/27 04:09:11;;;;;;;182.75;23.08;;;;;;;;;;5066006;28;20380;-68
2022/07/27 04:12:01;;;;;;;22.30;16.23;;;;;;;;;;5066629;28;20056;-68
2022/07/27 04:14:42;;;;;;;20.55;15.50;;;;;;;;;;5049826;28;20068;-68
2022/07/27 04:17:30;;;;;;;22.70;15.45;;;;;;;;;;5066308;28;20093;-68
2022/07/27 04:20:37;;;;;;;18.92;14.63;;;;;;;;;;5066385;28;20143;-68
2022/07/27 04:23:25;;;;;;;18.17;14.85;;;;;;;;;;5066613;28;20064;-67
2022/07/27 04:26:17;;;;;;;25.42;15.60;;;;;;;;;;5056795;28;20115;-67
2022/07/27 04:28:59;;;;;;;27.67;15.48;;;;;;;;;;5050039;28;20514;-68
2022/07/27 04:31:46;;;;;;;22.98;15.73;;;;;;;;;;5058321;28;20049;-66
2022/07/27 04:34:28;;;;;;;25.05;15.88;;;;;;;;;;5066219;28;20052;-67
2022/07/27 04:37:16;;;;;;;22.83;15.55;;;;;;;;;;5065635;28;20153;-67
2022/07/27 04:39:58;;;;;;;20.90;15.75;;;;;;;;;;5065957;28;20084;-67
2022/07/27 04:42:46;;;;;;;21.02;16.42;;;;;;;;;;5065687;28;20075;-65
2022/07/27 04:45:35;;;;;;;20.15;16.85;;;;;;;;;;5064321;28;20059;-66
2022/07/27 04:48:17;;;;;;;20.42;16.95;;;;;;;;;;5045662;28;20098;-65
2022/07/27 04:51:06;;;;;;;20.45;17.25;;;;;;;;;;5059701;28;20058;-66
2022/07/27 04:54:01;;;;;;;20.40;16.05;;;;;;;;;;5055728;27;20044;-65
2022/07/27 04:56:50;;;;;;;23.00;14.25;;;;;;;;;;5063894;28;20113;-65
2022/07/27 04:59:38;;;;;;;19.63;16.00;;;;;;;;;;5062365;28;20106;-67
2022/07/27 05:02:20;;;;;;;25.48;16.10;;;;;;;;;;5063602;28;20648;-67
2022/07/27 05:05:09;;;;;;;16.65;13.43;;;;;;;;;;5029603;28;20525;-69
2022/07/27 05:08:04;;;;;;;14.48;12.70;;;;;;;;;;5054127;28;20045;-66
2022/07/27 05:10:39;;;;;;;16.55;12.68;;;;;;;;;;5057226;28;20043;-66
2022/07/27 05:13:36;;;;;;;18.15;15.02;;;;;;;;;;5053098;28;20045;-65
2022/07/27 05:16:11;;;;;;;17.92;14.00;;;;;;;;;;5055527;28;20052;-67
2022/07/27 05:19:06;;;;;;;16.67;13.25;;;;;;;;;;5042286;28;20152;-66
2022/07/27 05:21:48;;;;;;;21.83;14.25;;;;;;;;;;5045865;28;20049;-65
2022/07/27 05:24:37;;;;;;;16.55;13.63;;;;;;;;;;5046137;28;20056;-66
2022/07/27 05:27:24;;;;;;;16.60;14.23;;;;;;;;;;5052245;28;20067;-66
2022/07/27 05:30:06;;;;;;;17.00;13.68;;;;;;;;;;5041892;28;20059;-67
2022/07/27 05:32:55;;;;;;;17.80;15.30;;;;;;;;;;5042309;28;20049;-66
2022/07/27 05:35:37;;;;;;;21.25;15.05;;;;;;;;;;5050110;28;20045;-65
2022/07/27 05:38:25;;;;;;;17.58;15.40;;;;;;;;;;5052221;28;20045;-65
2022/07/27 05:41:07;;;;;;;21.73;16.52;;;;;;;;;;5064284;28;20051;-66
2022/07/27 05:43:56;;;;;;;23.77;18.48;;;;;;;;;;5047235;28;20052;-67
2022/07/27 05:46:37;;;;;;;22.50;16.73;;;;;;;;;;5062326;28;20110;-68
2022/07/27 05:49:26;;;;;;;19.30;15.43;;;;;;;;;;5065127;28;20141;-67
2022/07/27 05:52:08;;;;;;;21.33;16.40;;;;;;;;;;5053160;28;20056;-68
2022/07/27 05:55:02;;;;;;;20.80;16.85;;;;;;;;;;5077587;27;20568;-69
2022/07/27 05:57:50;;;;;;;22.63;16.95;;;;;;;;;;5084764;28;20755;-69
2022/07/27 06:00:39;;;;;;;19.40;16.00;;;;;;;;;;5084605;28;20059;-70
2022/07/27 06:03:22;;;;;;;24.95;17.98;;;;;;;;;;5083202;28;20044;-69
2022/07/27 06:09:16;;;;;;;20.48;17.60;;;;;;;;;;5080164;28;20415;-69
2022/07/27 06:11:58;;;;;;;20.88;17.98;;;;;;;;;;5055021;28;20045;-69
2022/07/27 06:14:53;;;;;;;19.88;16.80;;;;;;;;;;5056686;28;20133;-69
2022/07/27 06:17:28;;;;;;;21.40;18.35;;;;;;;;;;5064646;28;20079;-69
2022/07/27 06:20:23;;;;;;;22.30;17.83;;;;;;;;;;5064790;28;20075;-69
2022/07/27 06:23:02;;;;;;;22.55;16.42;;;;;;;;;;5064655;28;20076;-68
2022/07/27 06:25:56;;;;;;;19.70;16.55;;;;;;;;;;5057909;28;20044;-70
2022/07/27 06:28:31;;;;;;;20.33;16.75;;;;;;;;;;5062360;28;20041;-69
2022/07/27 06:31:26;;;;;;;24.58;15.15;;;;;;;;;;5063189;28;20086;-69
2022/07/27 06:34:08;;;;;;;18.30;14.60;;;;;;;;;;5063820;28;20675;-70
2022/07/27 06:36:59;;;;;;;18.60;14.07;;;;;;;;;;5054658;28;20044;-70
2022/07/27 06:39:40;;;;;;;17.30;14.35;;;;;;;;;;5064668;28;20125;-69
2022/07/27 06:42:35;;;;;;;17.90;14.63;;;;;;;;;;5077357;28;20047;-70
2022/07/27 06:45:11;;;;;;;18.13;14.07;;;;;;;;;;5048849;28;20053;-69
2022/07/27 06:47:53;;;;;;;;;;;;;;;;;;5070902;28;20048;-70
2022/07/27 06:50:35;;;;;;;21.88;14.43;;;;;;;;;;5068672;28;20623;-70
2022/07/27 06:53:23;;;;;;;17.48;14.32;;;;;;;;;;5067720;28;20052;-68
2022/07/27 06:56:23;;;;;;;15.82;14.07;;;;;;;;;;5067236;28;20137;-68
2022/07/27 06:59:12;;;;;;;18.55;13.43;;;;;;;;;;5067915;28;20559;-69
2022/07/27 07:02:00;;;;;;;17.48;12.88;;;;;;;;;;5061369;28;20056;-69
2022/07/27 07:04:42;;;;;;;15.18;13.55;;;;;;;;;;5060438;28;20083;-68
2022/07/27 07:07:31;;;;;;;13.88;12.20;;;;;;;;;;5072280;28;20047;-70
2022/07/27 07:10:13;;;;;;;12.82;11.45;;;;;;;;;;5072105;28;20076;-70
2022/07/27 07:13:08;;;;;;;13.57;12.23;;;;;;;;;;5068545;28;20486;-71
2022/07/27 07:15:50;;;;;;;15.95;10.98;;;;;;;;;;5067032;28;20045;-71
2022/07/27 07:18:37;;;;;;;14.68;12.52;;;;;;;;;;5067099;28;20045;-71
2022/07/27 07:21:32;;;;;;;13.05;11.43;;;;;;;;;;5066409;28;20045;-71
2022/07/27 07:24:14;;;;;;;15.32;11.57;;;;;;;;;;5066460;28;20040;-71
2022/07/27 07:27:03;;;;;;;16.00;12.13;;;;;;;;;;5067799;28;20755;-71
2022/07/27 07:29:45;;;;;;;15.60;12.45;;;;;;;;;;5060332;28;20052;-71
2022/07/27 07:32:34;;;;;;;15.40;11.63;;;;;;;;;;5066894;28;20053;-70
2022/07/27 07:35:15;;;;;;;17.00;12.48;;;;;;;;;;5066887;28;20048;-69
2022/07/27 07:38:03;;;;;;;14.50;12.65;;;;;;;;;;5067612;28;20121;-70
2022/07/27 07:40:45;;;;;;;17.90;13.65;;;;;;;;;;5067754;28;20387;-70
2022/07/27 07:43:35;;;;;;;17.13;13.68;;;;;;;;;;5068069;28;20048;-68
2022/07/27 07:46:24;;;;;;;23.20;12.93;;;;;;;;;;5060073;28;20139;-70
2022/07/27 07:49:21;;;;;;;14.75;12.23;;;;;;;;;;5069421;28;20587;-69
2022/07/27 07:52:12;;;;;;;16.23;13.13;;;;;;;;;;5068338;28;20130;-69
2022/07/27 07:55:07;;;;;;;14.68;12.32;;;;;;;;;;5068071;28;20118;-69
2022/07/27 07:58:02;;;;;;;16.23;12.30;;;;;;;;;;5064832;28;20052;-69
2022/07/27 08:00:57;;;;;;;13.98;12.15;;;;;;;;;;5064480;28;20106;-69
2022/07/27 08:03:32;;;;;;;14.18;11.95;;;;;;;;;;5065488;28;20431;-69
2022/07/27 08:06:24;;;;;;;16.88;11.60;;;;;;;;;;5065778;28;20040;-70
2022/07/27 08:09:07;;;;;;;13.15;11.75;;;;;;;;;;5064732;28;20048;-69
2022/07/27 08:11:56;;;;;;;14.27;11.55;;;;;;;;;;5065389;28;20058;-70
2022/07/27 08:14:44;;;;;;;14.48;11.50;;;;;;;;;;5065638;28;20044;-69
2022/07/27 08:17:39;;;;;;;13.98;12.50;;;;;;;;;;5066370;28;20385;-70
2022/07/27 08:20:15;;;;;;;13.00;11.52;;;;;;;;;;5046818;28;20308;-68
2022/07/27 08:23:03;;;;;;;14.30;12.05;;;;;;;;;;5067263;28;20775;-70
2022/07/27 08:25:45;;;;;;;21.00;14.00;;;;;;;;;;5064935;28;20095;-70
2022/07/27 08:28:40;;;;;;;16.75;13.98;;;;;;;;;;5010861;28;510975;-68
2022/07/27 08:31:16;;;;;;;18.90;13.30;;;;;;;;;;5007044;28;20431;-68
2022/07/27 08:34:25;;;;;;;19.02;11.70;;;;;;;;;;4996981;28;20154;-67
2022/07/27 08:37:14;;;;;;;20.63;11.20;;;;;;;;;;4987314;28;20069;-67
2022/07/27 08:39:56;;;;;;;14.35;11.32;;;;;;;;;;4988626;28;20050;-68
2022/07/27 08:43:05;;;;;;;12.20;10.70;;;;;;;;;;5007454;28;20048;-68
2022/07/27 08:45:54;;;;;;;12.13;10.75;;;;;;;;;;5006335;28;20120;-68
2022/07/27 08:48:44;;;;;;;13.88;11.52;;;;;;;;;;5008144;28;20429;-69
2022/07/27 08:51:33;;;;;;;15.73;11.27;;;;;;;;;;5007918;28;20140;-69
2022/07/27 08:54:27;;;;;;;18.80;11.70;;;;;;;;;;5004665;28;20077;-68
2022/07/27 08:57:09;;;;;;;14.23;11.75;;;;;;;;;;4993755;28;20046;-69
2022/07/27 09:00:05;;;;;;;16.15;11.93;;;;;;;;;;5017643;28;20045;-68
2022/07/27 09:02:54;;;;;;;13.52;11.63;;;;;;;;;;5010561;28;20049;-70
2022/07/27 09:05:53;;;;;;;14.30;11.32;;;;;;;;;;5020142;28;20073;-69
2022/07/27 09:08:37;;;;;;;13.55;11.10;;;;;;;;;;5012862;28;20052;-69
2022/07/27 09:11:31;;;;;;;13.30;11.20;;;;;;;;;;5025494;28;20786;-69
2022/07/27 09:14:29;;;;;;;17.92;11.40;;;;;;;;;;5026219;28;20051;-68
2022/07/27 09:17:26;;;;;;;19.48;12.40;;;;;;;;;;5026648;28;20060;-69
2022/07/27 09:20:36;;;;;;;16.00;12.18;;;;;;;;;;5020106;28;20429;-69
2022/07/27 09:23:11;;;;;;;20.05;12.27;;;;;;;;;;5025103;28;20041;-69
2022/07/27 09:26:10;;;;;;;21.38;12.70;;;;;;;;;;5025668;28;20136;-68
2022/07/27 09:29:20;;;;;;;18.55;12.38;;;;;;;;;;5030507;28;20081;-69
2022/07/27 09:32:14;;;;;;;13.32;10.98;;;;;;;;;;5029290;28;20048;-69
2022/07/27 09:35:03;;;;;;;13.40;11.82;;;;;;;;;;5032659;28;20469;-70
2022/07/27 09:37:45;;;;;;;14.88;12.00;;;;;;;;;;5013106;28;20049;-68
2022/07/27 09:40:33;;;;;;;15.32;11.98;;;;;;;;;;5036964;28;20063;-69
2022/07/27 09:43:16;;;;;;;15.00;11.40;;;;;;;;;;5037563;28;20457;-69
2022/07/27 09:46:41;;;;;;;13.68;11.05;;;;;;;;;;5036432;28;20064;-70
2022/07/27 09:49:31;;;;;;;11.90;10.48;;;;;;;;;;5035265;28;20485;-67
2022/07/27 09:52:31;;;;;;;14.05;12.05;;;;;;;;;;5035274;28;20484;-69
2022/07/27 09:55:13;;;;;;;15.63;12.77;;;;;;;;;;5021249;28;20045;-69
2022/07/27 09:58:04;;;;;;;21.67;15.13;;;;;;;;;;5033075;28;20115;-69
2022/07/27 10:01:02;;;;;;;27.48;18.83;;;;;;;;;;5013508;28;20449;-70
2022/07/27 10:03:52;;;;;;;28.77;18.17;;;;;;;;;;5026769;28;20492;-69
2022/07/27 10:06:34;;;;;;;26.02;18.20;;;;;;;;;;5026723;28;20132;-69
2022/07/27 10:09:45;;;;;;;30.10;18.73;;;;;;;;;;5026351;28;20069;-69
2022/07/27 10:12:37;;;;;;;23.73;17.08;;;;;;;;;;5026179;28;20059;-70
2022/07/27 10:15:40;;;;;;;36.47;24.30;;;;;;;;;;5026706;28;20052;-70
2022/07/27 10:18:28;;;;;;;39.40;24.83;;;;;;;;;;5014173;28;20103;-67
2022/07/27 10:21:17;;;;;;;40.08;25.02;;;;;;;;;;5030026;28;20724;-70
2022/07/27 10:24:00;;;;;;;42.08;24.70;;;;;;;;;;5029642;28;20041;-70
2022/07/27 10:26:50;;;;;;;35.55;25.95;;;;;;;;;;5010526;28;20056;-70
2022/07/27 10:29:31;;;;;;;53.55;26.83;;;;;;;;;;5012457;28;20052;-70
2022/07/27 10:32:23;;;;;;;45.13;26.05;;;;;;;;;;5029912;28;20077;-70
2022/07/27 10:35:06;;;;;;;35.67;24.60;;;;;;;;;;5029661;28;20041;-70
2022/07/27 10:38:16;;;;;;;37.60;27.10;;;;;;;;;;5030236;28;20049;-69
2022/07/27 10:41:40;;;;;;;40.63;27.15;;;;;;;;;;5029918;28;20100;-70
2022/07/27 10:44:29;;;;;;;36.75;24.98;;;;;;;;;;5004284;28;20088;-69
2022/07/27 10:47:32;;;;;;;36.30;24.63;;;;;;;;;;5026827;28;20042;-69
2022/07/27 10:50:22;;;;;;;31.85;24.00;;;;;;;;;;5030337;28;20049;-69
2022/07/27 10:53:11;;;;;;;28.30;21.70;;;;;;;;;;5029894;28;20052;-70
2022/07/27 10:56:00;;;;;;;27.67;18.90;;;;;;;;;;5030420;28;20073;-69
2022/07/27 10:58:42;;;;;;;25.60;17.70;;;;;;;;;;5030000;28;20149;-68
2022/07/27 11:01:57;;;;;;;20.83;16.65;;;;;;;;;;5029217;28;20131;-69
2022/07/27 11:04:33;;;;;;;23.67;17.23;;;;;;;;;;5027848;28;20069;-68
2022/07/27 11:07:28;;;;;;;24.50;16.35;;;;;;;;;;5028384;28;20131;-70
2022/07/27 11:10:17;;;;;;;25.37;16.07;;;;;;;;;;5028963;28;20052;-70
2022/07/27 11:13:06;;;;;;;25.75;15.15;;;;;;;;;;5030301;28;20349;-69
2022/07/27 11:15:55;;;;;;;21.77;15.02;;;;;;;;;;5030615;28;20125;-68
2022/07/27 11:19:05;;;;;;;21.27;14.88;;;;;;;;;;5028411;28;20068;-69
2022/07/27 11:21:48;;;;;;;21.02;13.63;;;;;;;;;;5028367;28;20046;-69
2022/07/27 11:24:37;;;;;;;18.02;14.63;;;;;;;;;;5029467;28;20081;-69
2022/07/27 11:27:18;;;;;;;20.88;13.13;;;;;;;;;;5029497;28;20049;-69
2022/07/27 11:30:20;;;;;;;22.73;15.20;;;;;;;;;;5029079;28;20048;-68
2022/07/27 11:33:02;;;;;;;20.70;14.68;;;;;;;;;;5028058;28;20076;-69
2022/07/27 11:35:55;;;;;;;23.23;16.88;;;;;;;;;;5029368;28;20055;-69
2022/07/27 11:38:57;;;;;;;25.98;17.02;;;;;;;;;;5029559;28;20041;-68
2022/07/27 11:41:46;;;;;;;21.95;16.15;;;;;;;;;;5029100;28;20103;-68
2022/07/27 11:44:47;;;;;;;22.85;15.65;;;;;;;;;;5027725;28;20053;-69
2022/07/27 11:47:36;;;;;;;24.08;15.75;;;;;;;;;;5009588;28;20045;-69
2022/07/27 11:50:17;;;;;;;20.30;15.20;;;;;;;;;;5009090;28;20056;-69
2022/07/27 11:53:06;;;;;;;22.35;14.23;;;;;;;;;;5017739;28;20065;-68
2022/07/27 11:55:55;;;;;;;25.00;14.70;;;;;;;;;;5027474;28;20049;-69
2022/07/27 11:59:01;;;;;;;32.05;17.38;;;;;;;;;;5029208;28;20085;-69
2022/07/27 12:01:49;;;;;;;35.40;18.95;;;;;;;;;;5026269;28;20461;-69
2022/07/27 12:04:39;;;;;;;36.67;20.27;;;;;;;;;;5027711;28;20073;-69
2022/07/27 12:07:39;;;;;;;41.55;24.00;;;;;;;;;;5025412;28;20041;-68
2022/07/27 12:10:21;;;;;;;40.95;26.15;;;;;;;;;;5026753;28;20129;-69
2022/07/27 12:13:23;;;;;;;55.67;30.50;;;;;;;;;;5024129;28;20473;-69
2022/07/27 12:16:05;;;;;;;61.80;30.73;;;;;;;;;;5028311;28;20049;-69
2022/07/27 12:18:58;;;;;;;54.53;31.20;;;;;;;;;;5028402;28;20056;-68
2022/07/27 12:21:56;;;;;;;44.47;27.35;;;;;;;;;;5027458;28;20057;-69
2022/07/27 12:24:44;;;;;;;35.17;23.17;;;;;;;;;;5027718;28;20103;-67
2022/07/27 12:27:25;;;;;;;37.70;24.83;;;;;;;;;;5008561;28;20111;-70
2022/07/27 12:30:18;;;;;;;35.50;23.50;;;;;;;;;;5008960;28;20070;-69
2022/07/27 12:33:01;;;;;;;39.75;23.95;;;;;;;;;;5014494;28;20559;-69
2022/07/27 12:35:50;;;;;;;33.20;22.50;;;;;;;;;;5028181;28;20060;-69
2022/07/27 12:38:42;;;;;;;28.83;20.50;;;;;;;;;;5028593;28;20700;-70
2022/07/27 12:41:36;;;;;;;28.40;16.88;;;;;;;;;;5027042;28;20149;-69
2022/07/27 12:44:25;;;;;;;25.33;15.27;;;;;;;;;;5027597;28;20076;-69
2022/07/27 12:50:15;;;;;;;23.77;16.02;;;;;;;;;;5028050;28;20135;-68
2022/07/27 12:52:56;;;;;;;20.13;14.63;;;;;;;;;;5026637;28;20474;-68
2022/07/27 12:55:45;;;;;;;21.52;14.18;;;;;;;;;;5024669;28;20049;-69
2022/07/27 12:58:28;;;;;;;27.05;13.98;;;;;;;;;;5022557;28;20073;-68
2022/07/27 13:01:22;;;;;;;18.05;13.10;;;;;;;;;;5024265;28;20077;-68
2022/07/27 13:04:17;;;;;;;18.65;14.02;;;;;;;;;;5018352;28;20096;-69
2022/07/27 13:07:06;;;;;;;31.35;14.40;;;;;;;;;;5021991;28;20141;-70
2022/07/27 13:09:48;;;;;;;17.00;13.68;;;;;;;;;;5026395;28;20041;-69
2022/07/27 13:12:43;;;;;;;21.73;14.85;;;;;;;;;;5021759;28;20099;-67
2022/07/27 13:15:25;;;;;;;20.77;14.65;;;;;;;;;;5024979;28;20556;-67
2022/07/27 13:18:14;;;;;;;22.17;15.05;;;;;;;;;;5014645;28;20080;-68
2022/07/27 13:21:03;;;;;;;19.73;13.50;;;;;;;;;;5025589;28;20073;-69
2022/07/27 13:23:58;;;;;;;19.17;13.75;;;;;;;;;;5026240;28;20045;-69
2022/07/27 13:26:48;;;;;;;13.70;11.40;;;;;;;;;;5026813;28;20049;-69
2022/07/27 13:29:30;;;;;;;15.30;11.75;;;;;;;;;;5020680;28;20052;-68
2022/07/27 13:32:25;;;;;;;18.80;13.93;;;;;;;;;;5026485;28;20111;-67
2022/07/27 13:35:00;;;;;;;15.05;10.75;;;;;;;;;;5027384;28;20840;-69
2022/07/27 13:37:55;;;;;;;20.33;12.65;;;;;;;;;;5024030;28;20046;-69
2022/07/27 13:40:30;;;;;;;18.02;12.30;;;;;;;;;;5025637;28;20670;-69
2022/07/27 13:43:25;;;;;;;16.30;12.75;;;;;;;;;;5028729;28;20520;-69
2022/07/27 13:46:02;;;;;;;16.48;11.57;;;;;;;;;;5028419;28;20161;-69
2022/07/27 13:48:49;;;;;;;15.15;12.65;;;;;;;;;;5026880;28;20056;-69
2022/07/27 13:51:32;;;;;;;13.85;12.38;;;;;;;;;;5031816;28;20045;-69
2022/07/27 13:54:21;;;;;;;15.63;12.90;;;;;;;;;;5037001;28;20117;-68
2022/07/27 13:57:09;;;;;;;21.73;13.48;;;;;;;;;;5033058;28;20057;-70
2022/07/27 13:59:58;;;;;;;16.33;11.77;;;;;;;;;;5031006;28;20156;-69
2022/07/27 14:02:46;;;;;;;17.23;13.13;;;;;;;;;;5029220;28;20060;-67
2022/07/27 14:05:35;;;;;;;17.83;13.02;;;;;;;;;;5015836;28;20051;-67
2022/07/27 14:08:27;;;;;;;15.05;12.88;;;;;;;;;;5030671;28;20389;-67
2022/07/27 14:11:22;;;;;;;26.23;14.65;;;;;;;;;;5028138;28;20045;-67
2022/07/27 14:13:57;;;;;;;15.85;13.68;;;;;;;;;;5029423;28;20128;-68
2022/07/27 14:16:46;;;;;;;16.73;13.63;;;;;;;;;;5028686;28;20427;-69
2022/07/27 14:19:29;;;;;;;19.55;15.52;;;;;;;;;;5014769;28;20045;-69
2022/07/27 14:22:23;;;;;;;20.38;15.30;;;;;;;;;;5021615;28;20127;-70
2022/07/27 14:24:59;;;;;;;19.70;14.90;;;;;;;;;;5025160;28;20047;-70
2022/07/27 14:27:48;;;;;;;18.55;15.70;;;;;;;;;;5028092;28;20519;-69
2022/07/27 14:30:35;;;;;;;26.48;16.50;;;;;;;;;;5025283;28;20049;-71
2022/07/27 14:33:31;;;;;;;27.98;17.13;;;;;;;;;;5027532;28;20164;-70
2022/07/27 14:36:10;;;;;;;29.15;16.45;;;;;;;;;;5026936;28;20055;-70
2022/07/27 14:38:58;;;;;;;24.67;17.48;;;;;;;;;;5026402;28;20144;-71
2022/07/27 14:41:40;;;;;;;23.42;16.48;;;;;;;;;;5010521;28;20046;-71
2022/07/27 14:44:29;;;;;;;23.13;17.58;;;;;;;;;;5029307;28;20393;-72
2022/07/27 14:47:11;;;;;;;26.08;18.08;;;;;;;;;;5027985;28;20492;-70
2022/07/27 14:49:59;;;;;;;23.85;17.92;;;;;;;;;;5014316;28;20457;-69
2022/07/27 14:52:41;;;;;;;25.83;19.17;;;;;;;;;;5029879;28;20100;-71
2022/07/27 14:55:30;;;;;;;32.00;18.15;;;;;;;;;;5029438;28;20067;-70
2022/07/27 14:58:12;;;;;;;24.63;18.77;;;;;;;;;;4680359;28;10000608;-71
2022/07/27 15:01:07;;;;;;;24.98;18.65;;;;;;;;;;5002750;28;20042;-71
2022/07/27 15:03:49;;;;;;;27.25;19.15;;;;;;;;;;5020247;28;20068;-71
2022/07/27 15:06:37;;;;;;;32.15;21.02;;;;;;;;;;5020422;28;20406;-69
2022/07/27 15:09:19;;;;;;;26.80;19.95;;;;;;;;;;5022592;28;20052;-69
2022/07/27 15:12:08;;;;;;;29.77;20.73;;;;;;;;;;5026856;28;20055;-73
2022/07/27 15:14:56;;;;;;;31.83;20.00;;;;;;;;;;5009685;28;20537;-69
2022/07/27 15:17:37;;;;;;;30.20;19.10;;;;;;;;;;5014818;28;20049;-73
2022/07/27 15:20:25;;;;;;;28.92;21.27;;;;;;;;;;5027206;28;20077;-69
2022/07/27 15:23:13;;;;;;;26.25;21.20;;;;;;;;;;4998568;28;20111;-70
2022/07/27 15:25:55;;;;;;;27.40;20.67;;;;;;;;;;5014598;28;20052;-72
2022/07/27 15:28:43;;;;;;;27.38;21.08;;;;;;;;;;5015403;28;20505;-72
2022/07/27 15:31:25;;;;;;;30.33;22.20;;;;;;;;;;5020937;28;20056;-73
2022/07/27 15:34:14;;;;;;;29.20;20.90;;;;;;;;;;5017695;28;20042;-74
2022/07/27 15:36:56;;;;;;;31.42;20.85;;;;;;;;;;4995732;28;20069;-72
2022/07/27 15:39:45;;;;;;;27.48;20.50;;;;;;;;;;5006728;28;20053;-70
2022/07/27 15:42:27;;;;;;;26.60;19.23;;;;;;;;;;4991644;28;20076;-69
2022/07/27 15:45:18;;;;;;;24.42;18.85;;;;;;;;;;5010699;28;20046;-72
2022/07/27 15:48:07;;;;;;;22.05;17.58;;;;;;;;;;5025357;28;20140;-71
2022/07/27 15:50:51;;;;;;;24.00;16.85;;;;;;;;;;5028470;28;20115;-71
2022/07/27 15:53:39;;;;;;;20.55;16.55;;;;;;;;;;5027767;28;20133;-68
2022/07/27 15:56:28;;;;;;;32.72;18.77;;;;;;;;;;5028213;28;20132;-69
2022/07/27 15:59:10;;;;;;;47.65;21.08;;;;;;;;;;5028408;28;20151;-69
2022/07/27 16:01:58;;;;;;;22.10;16.58;;;;;;;;;;5028671;28;20056;-68
2022/07/27 16:04:41;;;;;;;16.90;14.07;;;;;;;;;;5031031;28;20056;-68
2022/07/27 16:07:29;;;;;;;20.05;15.07;;;;;;;;;;5032101;28;20042;-65
2022/07/27 16:10:21;;;;;;;19.98;16.10;;;;;;;;;;5030982;28;20049;-67
2022/07/27 16:13:11;;;;;;;22.77;14.65;;;;;;;;;;5030214;28;20072;-68
2022/07/27 16:19:00;;;;;;;22.73;15.98;;;;;;;;;;5029012;28;20136;-68
2022/07/27 16:21:53;;;;;;;28.38;17.58;;;;;;;;;;5023695;28;20513;-67
2022/07/27 16:24:42;;;;;;;28.58;17.05;;;;;;;;;;5032922;28;20338;-67
2022/07/27 16:27:31;;;;;;;22.00;15.75;;;;;;;;;;5027031;28;20038;-66
2022/07/27 16:30:19;;;;;;;21.73;15.43;;;;;;;;;;5003103;28;20107;-68
2022/07/27 16:33:04;;;;;;;21.38;15.60;;;;;;;;;;5019916;28;20052;-66